Time,TemperatureF,DewpointF,PressureIn,WindDirection,WindDirectionDegrees,WindSpeedMPH,WindSpeedGustMPH,Humidity,HourlyPrecipIn,Conditions,Clouds,dailyrainin,SolarRadiationWatts/m^2,SoftwareType,DateUTC
2013-11-06 00:02:00,48.0,1.0,-100.00,South,175,0.0,5.0,14,0.00,,,-99.99,0.000000,,2013-11-06 08:02:00,
2013-11-06 00:12:00,48.0,1.0,-100.00,South,175,0.0,5.0,14,0.00,,,-99.99,0.000000,,2013-11-06 08:12:00,
2013-11-06 00:22:00,48.0,1.0,-100.00,South,175,0.0,5.0,14,0.00,,,-99.99,0.000000,,2013-11-06 08:22:00,
2013-11-06 00:52:00,46.0,2.0,-100.00,SSE,165,0.0,6.0,16,0.00,,,0.00,0.000000,,2013-11-06 08:52:00,
2013-11-06 01:02:00,46.0,2.0,-100.00,SSE,165,0.0,6.0,16,0.00,,,0.00,0.000000,,2013-11-06 09:02:00,
2013-11-06 01:11:00,46.0,2.0,-100.00,SSE,165,0.0,6.0,16,0.00,,,0.00,0.000000,,2013-11-06 09:11:00,
2013-11-06 01:22:00,46.0,2.0,-100.00,SSE,165,0.0,6.0,16,0.00,,,0.00,0.000000,,2013-11-06 09:22:00,
2013-11-06 01:53:00,47.0,3.0,-100.00,SW,222,0.0,3.0,16,0.00,,,0.00,0.000000,,2013-11-06 09:53:00,
2013-11-06 02:03:00,47.0,3.0,-100.00,SW,222,0.0,3.0,16,0.00,,,0.00,0.000000,,2013-11-06 10:03:00,
2013-11-06 02:12:00,47.0,3.0,-100.00,SW,222,0.0,3.0,16,0.00,,,0.00,0.000000,,2013-11-06 10:12:00,
2013-11-06 02:23:00,47.0,3.0,-100.00,SW,222,0.0,3.0,16,0.00,,,0.00,0.000000,,2013-11-06 10:23:00,
2013-11-06 02:53:00,49.0,3.0,-100.00,East,81,0.0,3.0,15,0.00,,,0.00,0.000000,,2013-11-06 10:53:00,
2013-11-06 03:02:00,49.0,3.0,-100.00,East,81,0.0,3.0,15,0.00,,,0.00,0.000000,,2013-11-06 11:02:00,
2013-11-06 03:12:00,49.0,3.0,-100.00,East,81,0.0,3.0,15,0.00,,,0.00,0.000000,,2013-11-06 11:12:00,
2013-11-06 03:22:00,49.0,3.0,-100.00,East,81,0.0,3.0,15,0.00,,,0.00,0.000000,,2013-11-06 11:22:00,
2013-11-06 03:52:00,47.0,2.0,-100.00,South,186,1.0,7.0,15,0.00,,,0.00,0.000000,,2013-11-06 11:52:00,
2013-11-06 04:02:00,47.0,2.0,-100.00,South,186,1.0,7.0,15,0.00,,,0.00,0.000000,,2013-11-06 12:02:00,
2013-11-06 04:12:00,47.0,2.0,-100.00,South,186,1.0,7.0,15,0.00,,,0.00,0.000000,,2013-11-06 12:12:00,
2013-11-06 04:22:00,47.0,2.0,-100.00,South,186,1.0,7.0,15,0.00,,,0.00,0.000000,,2013-11-06 12:22:00,
2013-11-06 04:52:00,49.0,3.0,-100.00,South,180,2.0,8.0,15,0.00,,,0.00,0.000000,,2013-11-06 12:52:00,
2013-11-06 05:01:00,49.0,3.0,-100.00,South,180,2.0,8.0,15,0.00,,,0.00,0.000000,,2013-11-06 13:01:00,
2013-11-06 05:12:00,49.0,3.0,-100.00,South,180,2.0,8.0,15,0.00,,,0.00,0.000000,,2013-11-06 13:12:00,
2013-11-06 05:21:00,49.0,3.0,-100.00,South,180,2.0,8.0,15,0.00,,,0.00,0.000000,,2013-11-06 13:21:00,
2013-11-06 05:52:00,49.0,3.0,-100.00,South,172,5.0,9.0,15,0.00,,,0.00,0.000000,,2013-11-06 13:52:00,
2013-11-06 06:02:00,49.0,3.0,-100.00,South,172,5.0,9.0,15,0.00,,,0.00,0.000000,,2013-11-06 14:02:00,
2013-11-06 06:11:00,49.0,3.0,-100.00,South,172,5.0,9.0,15,0.00,,,0.00,0.000000,,2013-11-06 14:11:00,
2013-11-06 06:22:00,49.0,3.0,-100.00,South,172,5.0,9.0,15,0.00,,,0.00,0.000000,,2013-11-06 14:22:00,
2013-11-06 06:52:00,48.0,3.0,-100.00,SSW,197,0.0,6.0,15,0.00,,,0.00,1.000000,,2013-11-06 14:52:00,
2013-11-06 07:01:00,48.0,3.0,-100.00,SSW,197,0.0,6.0,15,0.00,,,0.00,1.000000,,2013-11-06 15:01:00,
2013-11-06 07:11:00,48.0,3.0,-100.00,SSW,197,0.0,6.0,15,0.00,,,0.00,1.000000,,2013-11-06 15:11:00,
2013-11-06 07:22:00,48.0,3.0,-100.00,SSW,197,0.0,6.0,15,0.00,,,0.00,1.000000,,2013-11-06 15:22:00,
2013-11-06 07:53:00,53.0,4.0,-100.00,SSE,163,3.0,8.0,13,0.00,,,0.00,100.000000,,2013-11-06 15:53:00,
2013-11-06 08:03:00,53.0,4.0,-100.00,SSE,163,3.0,8.0,13,0.00,,,0.00,100.000000,,2013-11-06 16:03:00,
2013-11-06 08:23:00,53.0,4.0,-100.00,SSE,163,3.0,8.0,13,0.00,,,0.00,100.000000,,2013-11-06 16:23:00,
2013-11-06 08:53:00,55.0,5.0,-100.00,South,171,5.0,9.0,13,0.00,,,0.00,327.000000,,2013-11-06 16:53:00,
2013-11-06 09:02:00,55.0,5.0,-100.00,South,171,5.0,9.0,13,0.00,,,0.00,327.000000,,2013-11-06 17:02:00,
2013-11-06 09:13:00,55.0,5.0,-100.00,South,171,5.0,9.0,13,0.00,,,0.00,327.000000,,2013-11-06 17:13:00,
2013-11-06 09:22:00,55.0,5.0,-100.00,South,171,5.0,9.0,13,0.00,,,0.00,327.000000,,2013-11-06 17:22:00,
2013-11-06 09:52:00,57.0,5.0,-100.00,SSE,166,5.0,12.0,12,0.00,,,0.00,553.000000,,2013-11-06 17:52:00,
2013-11-06 10:01:00,57.0,5.0,-100.00,SSE,166,5.0,12.0,12,0.00,,,0.00,553.000000,,2013-11-06 18:01:00,
2013-11-06 10:12:00,57.0,5.0,-100.00,SSE,166,5.0,12.0,12,0.00,,,0.00,553.000000,,2013-11-06 18:12:00,
2013-11-06 10:22:00,57.0,5.0,-100.00,SSE,166,5.0,12.0,12,0.00,,,0.00,553.000000,,2013-11-06 18:22:00,
2013-11-06 10:52:00,57.0,5.0,-100.00,NE,37,9.0,19.0,12,0.00,,,0.00,716.000000,,2013-11-06 18:52:00,
2013-11-06 11:01:00,57.0,5.0,-100.00,NE,37,9.0,19.0,12,0.00,,,0.00,716.000000,,2013-11-06 19:01:00,
2013-11-06 11:11:00,57.0,5.0,-100.00,NE,37,9.0,19.0,12,0.00,,,0.00,716.000000,,2013-11-06 19:11:00,
2013-11-06 11:21:00,57.0,5.0,-100.00,NE,37,9.0,19.0,12,0.00,,,0.00,716.000000,,2013-11-06 19:21:00,
2013-11-06 11:52:00,63.0,6.0,-100.00,SE,142,1.0,14.0,10,0.00,,,0.00,809.000000,,2013-11-06 19:52:00,
2013-11-06 12:01:00,63.0,6.0,-100.00,SE,142,1.0,14.0,10,0.00,,,0.00,809.000000,,2013-11-06 20:01:00,
2013-11-06 12:12:00,63.0,6.0,-100.00,SE,142,1.0,14.0,10,0.00,,,0.00,809.000000,,2013-11-06 20:12:00,
2013-11-06 12:22:00,63.0,6.0,-100.00,SE,142,1.0,14.0,10,0.00,,,0.00,809.000000,,2013-11-06 20:22:00,
2013-11-06 12:52:00,66.0,6.0,-100.00,South,187,4.0,10.0,9,0.00,,,0.00,819.000000,,2013-11-06 20:52:00,
2013-11-06 13:02:00,66.0,6.0,-100.00,South,187,4.0,10.0,9,0.00,,,0.00,819.000000,,2013-11-06 21:02:00,
2013-11-06 13:11:00,66.0,6.0,-100.00,South,187,4.0,10.0,9,0.00,,,0.00,819.000000,,2013-11-06 21:11:00,
2013-11-06 13:21:00,66.0,6.0,-100.00,South,187,4.0,10.0,9,0.00,,,0.00,819.000000,,2013-11-06 21:21:00,
2013-11-06 13:54:00,65.0,5.0,-100.00,South,180,6.0,12.0,9,0.00,,,0.00,754.000000,,2013-11-06 21:54:00,
2013-11-06 14:04:00,65.0,5.0,-100.00,South,180,6.0,12.0,9,0.00,,,0.00,754.000000,,2013-11-06 22:04:00,
2013-11-06 14:14:00,65.0,5.0,-100.00,South,180,6.0,12.0,9,0.00,,,0.00,754.000000,,2013-11-06 22:14:00,
2013-11-06 14:23:00,65.0,5.0,-100.00,South,180,6.0,12.0,9,0.00,,,0.00,754.000000,,2013-11-06 22:23:00,
2013-11-06 14:53:00,66.0,6.0,-100.00,South,172,6.0,12.0,9,0.00,,,0.00,613.000000,,2013-11-06 22:53:00,
2013-11-06 15:02:00,66.0,6.0,-100.00,South,172,6.0,12.0,9,0.00,,,0.00,613.000000,,2013-11-06 23:02:00,
2013-11-06 15:13:00,66.0,6.0,-100.00,South,172,6.0,12.0,9,0.00,,,0.00,613.000000,,2013-11-06 23:13:00,
2013-11-06 15:22:00,66.0,6.0,-100.00,South,172,6.0,12.0,9,0.00,,,0.00,613.000000,,2013-11-06 23:22:00,
2013-11-06 15:53:00,60.0,5.0,-100.00,South,177,7.0,12.0,11,0.00,,,0.00,315.000000,,2013-11-06 23:53:00,
2013-11-06 16:02:00,60.0,5.0,-100.00,South,177,7.0,12.0,11,0.00,,,0.00,315.000000,,2013-11-07 00:02:00,
2013-11-06 16:11:00,60.0,5.0,-100.00,South,177,7.0,12.0,11,0.00,,,0.00,315.000000,,2013-11-07 00:11:00,
2013-11-06 16:22:00,60.0,5.0,-100.00,South,177,7.0,12.0,11,0.00,,,0.00,315.000000,,2013-11-07 00:22:00,
2013-11-06 16:52:00,59.0,6.0,-100.00,South,175,1.0,10.0,12,0.00,,,0.00,105.000000,,2013-11-07 00:52:00,
2013-11-06 17:01:00,59.0,6.0,-100.00,South,175,1.0,10.0,12,0.00,,,0.00,105.000000,,2013-11-07 01:01:00,
2013-11-06 17:11:00,59.0,6.0,-100.00,South,175,1.0,10.0,12,0.00,,,0.00,105.000000,,2013-11-07 01:11:00,
2013-11-06 17:21:00,59.0,6.0,-100.00,South,175,1.0,10.0,12,0.00,,,0.00,105.000000,,2013-11-07 01:21:00,
2013-11-06 17:52:00,55.0,3.0,-100.00,SSW,197,4.0,7.0,12,0.00,,,0.00,8.000000,,2013-11-07 01:52:00,
2013-11-06 18:01:00,55.0,3.0,-100.00,SSW,197,4.0,7.0,12,0.00,,,0.00,8.000000,,2013-11-07 02:01:00,
2013-11-06 18:11:00,55.0,3.0,-100.00,SSW,197,4.0,7.0,12,0.00,,,0.00,8.000000,,2013-11-07 02:11:00,
2013-11-06 18:22:00,55.0,3.0,-100.00,SSW,197,4.0,7.0,12,0.00,,,0.00,8.000000,,2013-11-07 02:22:00,
2013-11-06 19:12:00,56.0,6.0,-100.00,South,180,0.0,5.0,13,0.00,,,0.00,0.000000,,2013-11-07 03:12:00,
2013-11-06 19:21:00,56.0,6.0,-100.00,South,180,0.0,5.0,13,0.00,,,0.00,0.000000,,2013-11-07 03:21:00,
2013-11-06 19:55:00,55.0,5.0,-100.00,NNW,336,0.0,3.0,13,0.00,,,0.00,0.000000,,2013-11-07 03:55:00,
2013-11-06 20:04:00,55.0,5.0,-100.00,NNW,336,0.0,3.0,13,0.00,,,0.00,0.000000,,2013-11-07 04:04:00,
2013-11-06 20:13:00,55.0,5.0,-100.00,NNW,336,0.0,3.0,13,0.00,,,0.00,0.000000,,2013-11-07 04:13:00,
2013-11-06 20:24:00,55.0,5.0,-100.00,NNW,336,0.0,3.0,13,0.00,,,0.00,0.000000,,2013-11-07 04:24:00,
2013-11-06 20:53:00,56.0,7.0,-100.00,SSW,206,0.0,4.0,14,0.00,,,0.00,0.000000,,2013-11-07 04:53:00,
2013-11-06 21:03:00,56.0,7.0,-100.00,SSW,206,0.0,4.0,14,0.00,,,0.00,0.000000,,2013-11-07 05:03:00,
2013-11-06 21:13:00,56.0,7.0,-100.00,SSW,206,0.0,4.0,14,0.00,,,0.00,0.000000,,2013-11-07 05:13:00,
2013-11-06 21:23:00,56.0,7.0,-100.00,SSW,206,0.0,4.0,14,0.00,,,0.00,0.000000,,2013-11-07 05:23:00,
2013-11-06 21:54:00,55.0,8.0,-100.00,SSE,166,0.0,3.0,15,0.00,,,0.00,0.000000,,2013-11-07 05:54:00,
2013-11-06 22:03:00,55.0,8.0,-100.00,SSE,166,0.0,3.0,15,0.00,,,0.00,0.000000,,2013-11-07 06:03:00,
2013-11-06 22:13:00,55.0,8.0,-100.00,SSE,166,0.0,3.0,15,0.00,,,0.00,0.000000,,2013-11-07 06:13:00,
2013-11-06 22:23:00,55.0,8.0,-100.00,SSE,166,0.0,3.0,15,0.00,,,0.00,0.000000,,2013-11-07 06:23:00,
2013-11-06 22:52:00,53.0,8.0,-100.00,South,180,0.0,4.0,16,0.00,,,0.00,0.000000,,2013-11-07 06:52:00,
2013-11-06 23:02:00,53.0,8.0,-100.00,South,180,0.0,4.0,16,0.00,,,0.00,0.000000,,2013-11-07 07:02:00,
2013-11-06 23:11:00,53.0,8.0,-100.00,South,180,0.0,4.0,16,0.00,,,0.00,0.000000,,2013-11-07 07:11:00,
2013-11-06 23:21:00,53.0,8.0,-100.00,South,180,0.0,4.0,16,0.00,,,0.00,0.000000,,2013-11-07 07:21:00,
2013-11-06 23:52:00,55.0,10.0,-100.00,East,90,0.0,0.0,16,0.00,,,0.00,0.000000,,2013-11-07 07:52:00,